sensor_id;sensor_type;location;lat;lon;timestamp;P1;durP1;ratioP1;P2;durP2;ratioP2
14104;SDS011;7130;52.484;4.766;2022-07-23T00:27:30;3.35;;;2.47;;
14104;SDS011;7130;52.484;4.766;2022-07-23T00:29:57;4.25;;;2.78;;
14104;SDS011;7130;52.484;4.766;2022-07-23T00:32:45;4.25;;;3.85;;
14104;SDS011;7130;52.484;4.766;2022-07-23T00:35:17;3.42;;;3.13;;
14104;SDS011;7130;52.484;4.766;2022-07-23T00:37:47;3.78;;;3.10;;
14104;SDS011;7130;52.484;4.766;2022-07-23T00:40:22;4.03;;;2.80;;
14104;SDS011;7130;52.484;4.766;2022-07-23T00:45:43;3.88;;;3.42;;
14104;SDS011;7130;52.484;4.766;2022-07-23T00:48:14;3.08;;;2.72;;
14104;SDS011;7130;52.484;4.766;2022-07-23T00:50:42;2.90;;;2.70;;
14104;SDS011;7130;52.484;4.766;2022-07-23T00:53:13;3.17;;;2.50;;
14104;SDS011;7130;52.484;4.766;2022-07-23T00:55:41;3.35;;;2.50;;
14104;SDS011;7130;52.484;4.766;2022-07-23T00:58:09;4.95;;;2.40;;
14104;SDS011;7130;52.484;4.766;2022-07-23T01:00:36;4.93;;;2.78;;
14104;SDS011;7130;52.484;4.766;2022-07-23T01:03:11;3.90;;;2.70;;
14104;SDS011;7130;52.484;4.766;2022-07-23T01:05:39;3.63;;;2.88;;
14104;SDS011;7130;52.484;4.766;2022-07-23T01:08:06;4.90;;;3.20;;
14104;SDS011;7130;52.484;4.766;2022-07-23T01:16:49;3.17;;;2.87;;
14104;SDS011;7130;52.484;4.766;2022-07-23T01:19:19;4.05;;;2.90;;
14104;SDS011;7130;52.484;4.766;2022-07-23T01:21:48;3.00;;;2.70;;
14104;SDS011;7130;52.484;4.766;2022-07-23T01:24:18;4.20;;;3.40;;
14104;SDS011;7130;52.484;4.766;2022-07-23T01:26:46;3.45;;;2.90;;
14104;SDS011;7130;52.484;4.766;2022-07-23T01:32:26;4.20;;;3.13;;
14104;SDS011;7130;52.484;4.766;2022-07-23T01:34:53;3.37;;;2.87;;
14104;SDS011;7130;52.484;4.766;2022-07-23T01:37:22;4.20;;;3.00;;
14104;SDS011;7130;52.484;4.766;2022-07-23T01:39:51;4.17;;;2.97;;
14104;SDS011;7130;52.484;4.766;2022-07-23T01:45:25;4.68;;;3.33;;
14104;SDS011;7130;52.484;4.766;2022-07-23T01:47:52;3.25;;;2.95;;
14104;SDS011;7130;52.484;4.766;2022-07-23T01:50:19;4.03;;;2.90;;
14104;SDS011;7130;52.484;4.766;2022-07-23T01:52:47;2.70;;;2.50;;
14104;SDS011;7130;52.484;4.766;2022-07-23T01:55:16;2.85;;;2.65;;
14104;SDS011;7130;52.484;4.766;2022-07-23T02:00:46;3.10;;;2.80;;
14104;SDS011;7130;52.484;4.766;2022-07-23T02:06:55;4.72;;;4.22;;
14104;SDS011;7130;52.484;4.766;2022-07-23T02:24:47;4.13;;;3.75;;
14104;SDS011;7130;52.484;4.766;2022-07-23T02:27:17;4.38;;;3.97;;
14104;SDS011;7130;52.484;4.766;2022-07-23T02:33:00;4.30;;;3.80;;
14104;SDS011;7130;52.484;4.766;2022-07-23T02:35:41;6.00;;;4.70;;
14104;SDS011;7130;52.484;4.766;2022-07-23T02:38:23;4.53;;;4.13;;
14104;SDS011;7130;52.484;4.766;2022-07-23T02:40:53;5.68;;;4.75;;
14104;SDS011;7130;52.484;4.766;2022-07-23T02:43:39;5.57;;;4.85;;
14104;SDS011;7130;52.484;4.766;2022-07-23T02:46:14;5.80;;;5.13;;
14104;SDS011;7130;52.484;4.766;2022-07-23T02:48:41;5.90;;;5.30;;
14104;SDS011;7130;52.484;4.766;2022-07-23T02:51:13;7.53;;;5.30;;
14104;SDS011;7130;52.484;4.766;2022-07-23T02:53:41;6.47;;;5.70;;
14104;SDS011;7130;52.484;4.766;2022-07-23T03:02:01;7.82;;;6.60;;
14104;SDS011;7130;52.484;4.766;2022-07-23T03:04:28;7.27;;;6.67;;
14104;SDS011;7130;52.484;4.766;2022-07-23T03:06:56;6.80;;;6.10;;
14104;SDS011;7130;52.484;4.766;2022-07-23T03:09:24;7.00;;;6.40;;
14104;SDS011;7130;52.484;4.766;2022-07-23T03:11:52;5.97;;;5.47;;
14104;SDS011;7130;52.484;4.766;2022-07-23T03:14:25;5.32;;;4.82;;
14104;SDS011;7130;52.484;4.766;2022-07-23T03:16:52;5.65;;;5.25;;
14104;SDS011;7130;52.484;4.766;2022-07-23T03:19:30;5.55;;;5.07;;
14104;SDS011;7130;52.484;4.766;2022-07-23T03:21:57;5.43;;;4.95;;
14104;SDS011;7130;52.484;4.766;2022-07-23T03:24:25;5.60;;;5.20;;
14104;SDS011;7130;52.484;4.766;2022-07-23T03:27:14;5.65;;;5.25;;
14104;SDS011;7130;52.484;4.766;2022-07-23T03:29:42;5.50;;;5.10;;
14104;SDS011;7130;52.484;4.766;2022-07-23T03:32:09;5.95;;;5.45;;
14104;SDS011;7130;52.484;4.766;2022-07-23T03:34:39;5.95;;;5.45;;
14104;SDS011;7130;52.484;4.766;2022-07-23T03:37:07;6.43;;;5.82;;
14104;SDS011;7130;52.484;4.766;2022-07-23T03:39:37;6.38;;;5.78;;
14104;SDS011;7130;52.484;4.766;2022-07-23T03:42:04;6.93;;;6.32;;
14104;SDS011;7130;52.484;4.766;2022-07-23T03:44:34;6.88;;;6.28;;
14104;SDS011;7130;52.484;4.766;2022-07-23T03:47:11;7.65;;;5.85;;
14104;SDS011;7130;52.484;4.766;2022-07-23T03:49:53;6.03;;;5.40;;
14104;SDS011;7130;52.484;4.766;2022-07-23T03:52:20;6.30;;;5.78;;
14104;SDS011;7130;52.484;4.766;2022-07-23T03:54:57;6.63;;;6.03;;
14104;SDS011;7130;52.484;4.766;2022-07-23T03:57:24;6.15;;;5.55;;
14104;SDS011;7130;52.484;4.766;2022-07-23T03:59:56;6.60;;;6.00;;
14104;SDS011;7130;52.484;4.766;2022-07-23T04:02:24;6.97;;;6.28;;
14104;SDS011;7130;52.484;4.766;2022-07-23T04:04:58;7.45;;;6.13;;
14104;SDS011;7130;52.484;4.766;2022-07-23T04:07:25;6.70;;;6.10;;
14104;SDS011;7130;52.484;4.766;2022-07-23T04:09:53;3.10;;;2.90;;
14104;SDS011;7130;52.484;4.766;2022-07-23T04:12:20;3.00;;;2.80;;
14104;SDS011;7130;52.484;4.766;2022-07-23T04:14:47;3.23;;;2.93;;
14104;SDS011;7130;52.484;4.766;2022-07-23T04:17:14;4.22;;;3.78;;
14104;SDS011;7130;52.484;4.766;2022-07-23T04:19:41;4.22;;;3.88;;
14104;SDS011;7130;52.484;4.766;2022-07-23T04:22:10;5.68;;;5.18;;
14104;SDS011;7130;52.484;4.766;2022-07-23T04:24:46;6.22;;;5.63;;
14104;SDS011;7130;52.484;4.766;2022-07-23T04:27:14;6.38;;;5.78;;
14104;SDS011;7130;52.484;4.766;2022-07-23T04:29:45;7.32;;;6.30;;
14104;SDS011;7130;52.484;4.766;2022-07-23T04:32:12;6.80;;;6.20;;
14104;SDS011;7130;52.484;4.766;2022-07-23T04:34:44;7.13;;;6.53;;
14104;SDS011;7130;52.484;4.766;2022-07-23T04:37:15;5.80;;;5.30;;
14104;SDS011;7130;52.484;4.766;2022-07-23T04:39:42;4.95;;;4.50;;
14104;SDS011;7130;52.484;4.766;2022-07-23T04:42:10;4.78;;;4.38;;
14104;SDS011;7130;52.484;4.766;2022-07-23T04:44:42;5.25;;;4.75;;
14104;SDS011;7130;52.484;4.766;2022-07-23T04:47:09;4.80;;;4.40;;
14104;SDS011;7130;52.484;4.766;2022-07-23T04:49:45;4.43;;;4.03;;
14104;SDS011;7130;52.484;4.766;2022-07-23T04:52:12;5.25;;;4.68;;
14104;SDS011;7130;52.484;4.766;2022-07-23T04:54:41;5.95;;;5.32;;
14104;SDS011;7130;52.484;4.766;2022-07-23T04:57:09;5.30;;;4.82;;
14104;SDS011;7130;52.484;4.766;2022-07-23T04:59:40;5.28;;;4.88;;
14104;SDS011;7130;52.484;4.766;2022-07-23T05:02:08;4.75;;;4.35;;
14104;SDS011;7130;52.484;4.766;2022-07-23T05:04:39;4.97;;;4.50;;
14104;SDS011;7130;52.484;4.766;2022-07-23T05:07:07;5.38;;;4.90;;
14104;SDS011;7130;52.484;4.766;2022-07-23T05:09:38;5.47;;;5.03;;
14104;SDS011;7130;52.484;4.766;2022-07-23T05:12:07;5.80;;;4.80;;
14104;SDS011;7130;52.484;4.766;2022-07-23T05:14:34;5.75;;;5.35;;
14104;SDS011;7130;52.484;4.766;2022-07-23T05:17:01;5.53;;;5.03;;
14104;SDS011;7130;52.484;4.766;2022-07-23T05:19:28;7.93;;;6.05;;
14104;SDS011;7130;52.484;4.766;2022-07-23T05:24:51;6.82;;;6.18;;
14104;SDS011;7130;52.484;4.766;2022-07-23T05:27:20;6.00;;;5.50;;
14104;SDS011;7130;52.484;4.766;2022-07-23T05:32:54;7.13;;;6.50;;
14104;SDS011;7130;52.484;4.766;2022-07-23T05:35:22;6.80;;;6.18;;
14104;SDS011;7130;52.484;4.766;2022-07-23T05:37:50;7.20;;;6.60;;
14104;SDS011;7130;52.484;4.766;2022-07-23T05:40:18;7.45;;;6.72;;
14104;SDS011;7130;52.484;4.766;2022-07-23T05:42:48;7.00;;;6.40;;
14104;SDS011;7130;52.484;4.766;2022-07-23T05:48:07;8.15;;;7.35;;
14104;SDS011;7130;52.484;4.766;2022-07-23T05:50:35;7.85;;;7.10;;
14104;SDS011;7130;52.484;4.766;2022-07-23T05:53:03;7.75;;;7.05;;
14104;SDS011;7130;52.484;4.766;2022-07-23T05:55:32;7.30;;;6.70;;
14104;SDS011;7130;52.484;4.766;2022-07-23T05:58:08;7.60;;;6.93;;
14104;SDS011;7130;52.484;4.766;2022-07-23T06:00:38;7.38;;;6.78;;
14104;SDS011;7130;52.484;4.766;2022-07-23T06:03:05;7.25;;;6.57;;
14104;SDS011;7130;52.484;4.766;2022-07-23T06:05:32;7.30;;;6.60;;
14104;SDS011;7130;52.484;4.766;2022-07-23T06:07:59;7.22;;;6.53;;
14104;SDS011;7130;52.484;4.766;2022-07-23T06:10:31;7.32;;;6.63;;
14104;SDS011;7130;52.484;4.766;2022-07-23T06:12:58;6.90;;;6.30;;
14104;SDS011;7130;52.484;4.766;2022-07-23T06:18:18;6.07;;;5.50;;
14104;SDS011;7130;52.484;4.766;2022-07-23T06:20:54;6.20;;;5.60;;
14104;SDS011;7130;52.484;4.766;2022-07-23T06:23:22;6.43;;;5.50;;
14104;SDS011;7130;52.484;4.766;2022-07-23T06:25:56;5.72;;;5.20;;
14104;SDS011;7130;52.484;4.766;2022-07-23T06:28:44;6.27;;;5.10;;
14104;SDS011;7130;52.484;4.766;2022-07-23T06:31:38;5.25;;;4.75;;
14104;SDS011;7130;52.484;4.766;2022-07-23T06:34:07;5.10;;;3.90;;
14104;SDS011;7130;52.484;4.766;2022-07-23T06:36:40;5.05;;;4.10;;
14104;SDS011;7130;52.484;4.766;2022-07-23T06:39:22;5.28;;;3.60;;
14104;SDS011;7130;52.484;4.766;2022-07-23T06:41:50;4.68;;;3.28;;
14104;SDS011;7130;52.484;4.766;2022-07-23T06:44:17;3.35;;;2.85;;
14104;SDS011;7130;52.484;4.766;2022-07-23T06:46:45;2.70;;;2.20;;
14104;SDS011;7130;52.484;4.766;2022-07-23T06:49:14;2.95;;;2.13;;
14104;SDS011;7130;52.484;4.766;2022-07-23T06:51:41;2.80;;;2.25;;
14104;SDS011;7130;52.484;4.766;2022-07-23T06:54:08;2.65;;;1.95;;
14104;SDS011;7130;52.484;4.766;2022-07-23T06:56:35;3.03;;;1.60;;
14104;SDS011;7130;52.484;4.766;2022-07-23T06:59:02;1.80;;;1.00;;
14104;SDS011;7130;52.484;4.766;2022-07-23T07:01:29;3.78;;;1.52;;
14104;SDS011;7130;52.484;4.766;2022-07-23T07:03:56;3.10;;;2.13;;
14104;SDS011;7130;52.484;4.766;2022-07-23T07:06:25;3.10;;;1.85;;
14104;SDS011;7130;52.484;4.766;2022-07-23T07:08:52;1.80;;;1.13;;
14104;SDS011;7130;52.484;4.766;2022-07-23T07:11:20;2.83;;;1.15;;
14104;SDS011;7130;52.484;4.766;2022-07-23T07:13:48;2.75;;;1.00;;
14104;SDS011;7130;52.484;4.766;2022-07-23T07:16:15;3.10;;;1.20;;
14104;SDS011;7130;52.484;4.766;2022-07-23T07:18:48;3.00;;;0.90;;
14104;SDS011;7130;52.484;4.766;2022-07-23T07:21:15;1.92;;;1.10;;
14104;SDS011;7130;52.484;4.766;2022-07-23T07:23:43;2.75;;;1.95;;
14104;SDS011;7130;52.484;4.766;2022-07-23T07:26:10;2.90;;;1.52;;
14104;SDS011;7130;52.484;4.766;2022-07-23T07:28:37;2.90;;;1.40;;
14104;SDS011;7130;52.484;4.766;2022-07-23T07:31:05;3.63;;;1.50;;
14104;SDS011;7130;52.484;4.766;2022-07-23T07:33:32;2.55;;;1.30;;
14104;SDS011;7130;52.484;4.766;2022-07-23T07:35:59;3.25;;;1.58;;
14104;SDS011;7130;52.484;4.766;2022-07-23T07:38:26;2.47;;;1.67;;
14104;SDS011;7130;52.484;4.766;2022-07-23T07:40:55;2.25;;;1.52;;
14104;SDS011;7130;52.484;4.766;2022-07-23T07:43:22;3.25;;;1.40;;
14104;SDS011;7130;52.484;4.766;2022-07-23T07:45:49;2.47;;;1.20;;
14104;SDS011;7130;52.484;4.766;2022-07-23T07:48:16;1.77;;;1.38;;
14104;SDS011;7130;52.484;4.766;2022-07-23T07:50:43;4.10;;;1.58;;
14104;SDS011;7130;52.484;4.766;2022-07-23T07:53:10;2.45;;;1.50;;
14104;SDS011;7130;52.484;4.766;2022-07-23T07:58:36;2.45;;;1.30;;
14104;SDS011;7130;52.484;4.766;2022-07-23T08:01:03;2.50;;;1.40;;
14104;SDS011;7130;52.484;4.766;2022-07-23T08:03:31;2.90;;;1.40;;
14104;SDS011;7130;52.484;4.766;2022-07-23T08:05:58;2.30;;;1.40;;
14104;SDS011;7130;52.484;4.766;2022-07-23T08:08:25;2.33;;;1.37;;
14104;SDS011;7130;52.484;4.766;2022-07-23T08:10:52;2.33;;;1.38;;
14104;SDS011;7130;52.484;4.766;2022-07-23T08:13:19;1.63;;;1.20;;
14104;SDS011;7130;52.484;4.766;2022-07-23T08:15:48;3.33;;;1.40;;
14104;SDS011;7130;52.484;4.766;2022-07-23T08:18:15;2.67;;;1.40;;
14104;SDS011;7130;52.484;4.766;2022-07-23T08:20:42;3.05;;;1.60;;
14104;SDS011;7130;52.484;4.766;2022-07-23T08:23:09;2.80;;;1.50;;
14104;SDS011;7130;52.484;4.766;2022-07-23T08:25:37;1.85;;;1.30;;
14104;SDS011;7130;52.484;4.766;2022-07-23T08:28:05;2.42;;;1.30;;
14104;SDS011;7130;52.484;4.766;2022-07-23T08:30:33;4.32;;;1.35;;
14104;SDS011;7130;52.484;4.766;2022-07-23T08:33:11;3.90;;;1.40;;
14104;SDS011;7130;52.484;4.766;2022-07-23T08:35:39;2.38;;;1.25;;
14104;SDS011;7130;52.484;4.766;2022-07-23T08:38:08;2.80;;;1.33;;
14104;SDS011;7130;52.484;4.766;2022-07-23T08:40:52;2.70;;;1.45;;
14104;SDS011;7130;52.484;4.766;2022-07-23T08:43:19;2.25;;;1.38;;
14104;SDS011;7130;52.484;4.766;2022-07-23T08:45:48;2.45;;;1.40;;
14104;SDS011;7130;52.484;4.766;2022-07-23T08:48:53;3.35;;;1.40;;
14104;SDS011;7130;52.484;4.766;2022-07-23T08:51:24;1.90;;;1.33;;
14104;SDS011;7130;52.484;4.766;2022-07-23T08:53:52;2.15;;;1.42;;
14104;SDS011;7130;52.484;4.766;2022-07-23T08:56:19;2.22;;;1.42;;
14104;SDS011;7130;52.484;4.766;2022-07-23T08:58:48;2.63;;;1.25;;
14104;SDS011;7130;52.484;4.766;2022-07-23T09:01:18;2.20;;;1.13;;
14104;SDS011;7130;52.484;4.766;2022-07-23T09:03:55;2.08;;;1.30;;
14104;SDS011;7130;52.484;4.766;2022-07-23T09:06:22;2.22;;;1.35;;
14104;SDS011;7130;52.484;4.766;2022-07-23T09:08:49;2.85;;;1.10;;
14104;SDS011;7130;52.484;4.766;2022-07-23T09:11:17;2.72;;;1.25;;
14104;SDS011;7130;52.484;4.766;2022-07-23T09:13:46;2.30;;;1.10;;
14104;SDS011;7130;52.484;4.766;2022-07-23T09:16:13;2.80;;;1.40;;
14104;SDS011;7130;52.484;4.766;2022-07-23T09:18:42;1.98;;;1.40;;
14104;SDS011;7130;52.484;4.766;2022-07-23T09:21:24;1.60;;;1.10;;
14104;SDS011;7130;52.484;4.766;2022-07-23T09:23:55;2.28;;;1.30;;
14104;SDS011;7130;52.484;4.766;2022-07-23T09:26:33;2.10;;;1.13;;
14104;SDS011;7130;52.484;4.766;2022-07-23T09:29:09;2.83;;;1.65;;
14104;SDS011;7130;52.484;4.766;2022-07-23T09:31:42;2.57;;;1.20;;
14104;SDS011;7130;52.484;4.766;2022-07-23T09:34:10;2.25;;;0.95;;
14104;SDS011;7130;52.484;4.766;2022-07-23T09:36:39;4.18;;;1.50;;
14104;SDS011;7130;52.484;4.766;2022-07-23T09:39:06;4.17;;;1.27;;
14104;SDS011;7130;52.484;4.766;2022-07-23T09:41:34;2.17;;;1.45;;
14104;SDS011;7130;52.484;4.766;2022-07-23T09:44:06;2.80;;;1.65;;
14104;SDS011;7130;52.484;4.766;2022-07-23T09:46:33;2.28;;;1.33;;
14104;SDS011;7130;52.484;4.766;2022-07-23T09:49:00;3.50;;;1.90;;
14104;SDS011;7130;52.484;4.766;2022-07-23T09:51:40;3.37;;;1.63;;
14104;SDS011;7130;52.484;4.766;2022-07-23T09:54:20;2.73;;;1.70;;
14104;SDS011;7130;52.484;4.766;2022-07-23T09:56:48;2.38;;;1.73;;
14104;SDS011;7130;52.484;4.766;2022-07-23T09:59:15;3.75;;;2.00;;
14104;SDS011;7130;52.484;4.766;2022-07-23T10:01:43;2.08;;;1.40;;
14104;SDS011;7130;52.484;4.766;2022-07-23T10:04:11;2.85;;;1.92;;
14104;SDS011;7130;52.484;4.766;2022-07-23T10:06:39;3.13;;;1.67;;
14104;SDS011;7130;52.484;4.766;2022-07-23T10:09:07;3.25;;;2.20;;
14104;SDS011;7130;52.484;4.766;2022-07-23T10:11:35;3.85;;;1.80;;
14104;SDS011;7130;52.484;4.766;2022-07-23T10:14:03;3.22;;;1.50;;
14104;SDS011;7130;52.484;4.766;2022-07-23T10:16:32;3.10;;;1.70;;
14104;SDS011;7130;52.484;4.766;2022-07-23T10:18:59;1.67;;;1.10;;
14104;SDS011;7130;52.484;4.766;2022-07-23T10:21:28;2.85;;;1.30;;
14104;SDS011;7130;52.484;4.766;2022-07-23T10:24:12;3.50;;;1.60;;
14104;SDS011;7130;52.484;4.766;2022-07-23T10:26:45;3.42;;;2.05;;
14104;SDS011;7130;52.484;4.766;2022-07-23T10:29:18;2.53;;;1.90;;
14104;SDS011;7130;52.484;4.766;2022-07-23T10:31:50;2.92;;;1.90;;
14104;SDS011;7130;52.484;4.766;2022-07-23T10:34:21;4.40;;;2.05;;
14104;SDS011;7130;52.484;4.766;2022-07-23T10:36:52;3.60;;;2.13;;
14104;SDS011;7130;52.484;4.766;2022-07-23T10:39:24;3.83;;;2.20;;
14104;SDS011;7130;52.484;4.766;2022-07-23T10:41:51;2.50;;;2.13;;
14104;SDS011;7130;52.484;4.766;2022-07-23T10:44:19;3.13;;;2.05;;
14104;SDS011;7130;52.484;4.766;2022-07-23T10:46:55;3.45;;;2.05;;
14104;SDS011;7130;52.484;4.766;2022-07-23T10:49:32;2.60;;;1.70;;
14104;SDS011;7130;52.484;4.766;2022-07-23T10:52:15;2.22;;;1.95;;
14104;SDS011;7130;52.484;4.766;2022-07-23T10:54:44;4.53;;;2.50;;
14104;SDS011;7130;52.484;4.766;2022-07-23T10:57:12;2.90;;;2.10;;
14104;SDS011;7130;52.484;4.766;2022-07-23T11:02:25;4.35;;;2.08;;
14104;SDS011;7130;52.484;4.766;2022-07-23T11:04:52;3.60;;;2.23;;
14104;SDS011;7130;52.484;4.766;2022-07-23T11:07:19;2.78;;;2.10;;
14104;SDS011;7130;52.484;4.766;2022-07-23T11:09:48;4.13;;;2.53;;
14104;SDS011;7130;52.484;4.766;2022-07-23T11:12:34;3.28;;;2.17;;
14104;SDS011;7130;52.484;4.766;2022-07-23T11:15:02;3.03;;;2.05;;
14104;SDS011;7130;52.484;4.766;2022-07-23T11:17:30;4.15;;;2.67;;
14104;SDS011;7130;52.484;4.766;2022-07-23T11:20:13;5.68;;;2.60;;
14104;SDS011;7130;52.484;4.766;2022-07-23T11:22:46;3.45;;;2.75;;
14104;SDS011;7130;52.484;4.766;2022-07-23T11:25:30;4.30;;;3.90;;
14104;SDS011;7130;52.484;4.766;2022-07-23T11:28:07;2.53;;;2.33;;
14104;SDS011;7130;52.484;4.766;2022-07-23T11:30:39;4.07;;;2.85;;
14104;SDS011;7130;52.484;4.766;2022-07-23T11:33:15;2.67;;;1.90;;
14104;SDS011;7130;52.484;4.766;2022-07-23T11:35:44;3.37;;;2.37;;
14104;SDS011;7130;52.484;4.766;2022-07-23T11:38:12;3.05;;;2.47;;
14104;SDS011;7130;52.484;4.766;2022-07-23T11:40:43;4.95;;;2.60;;
14104;SDS011;7130;52.484;4.766;2022-07-23T11:43:10;3.10;;;2.60;;
14104;SDS011;7130;52.484;4.766;2022-07-23T11:45:38;5.72;;;2.80;;
14104;SDS011;7130;52.484;4.766;2022-07-23T11:48:15;3.13;;;2.60;;
14104;SDS011;7130;52.484;4.766;2022-07-23T11:50:42;4.47;;;2.83;;
14104;SDS011;7130;52.484;4.766;2022-07-23T11:53:10;3.85;;;2.85;;
14104;SDS011;7130;52.484;4.766;2022-07-23T11:55:37;3.10;;;2.28;;
14104;SDS011;7130;52.484;4.766;2022-07-23T11:58:05;4.00;;;2.80;;
14104;SDS011;7130;52.484;4.766;2022-07-23T12:00:33;3.20;;;2.60;;
14104;SDS011;7130;52.484;4.766;2022-07-23T12:03:00;3.00;;;2.42;;
14104;SDS011;7130;52.484;4.766;2022-07-23T12:05:29;4.88;;;3.40;;
14104;SDS011;7130;52.484;4.766;2022-07-23T12:07:58;4.78;;;3.30;;
14104;SDS011;7130;52.484;4.766;2022-07-23T12:10:26;5.22;;;3.28;;
14104;SDS011;7130;52.484;4.766;2022-07-23T12:12:54;4.00;;;3.00;;
14104;SDS011;7130;52.484;4.766;2022-07-23T12:15:23;4.32;;;2.60;;
14104;SDS011;7130;52.484;4.766;2022-07-23T12:17:51;5.93;;;3.47;;
14104;SDS011;7130;52.484;4.766;2022-07-23T12:20:20;4.65;;;3.17;;
14104;SDS011;7130;52.484;4.766;2022-07-23T12:22:48;3.17;;;2.40;;
14104;SDS011;7130;52.484;4.766;2022-07-23T12:25:16;3.50;;;2.95;;
14104;SDS011;7130;52.484;4.766;2022-07-23T12:27:44;4.88;;;2.97;;
14104;SDS011;7130;52.484;4.766;2022-07-23T12:30:18;5.30;;;3.60;;
14104;SDS011;7130;52.484;4.766;2022-07-23T12:32:49;4.55;;;2.63;;
14104;SDS011;7130;52.484;4.766;2022-07-23T12:35:16;3.67;;;2.90;;
14104;SDS011;7130;52.484;4.766;2022-07-23T12:37:44;4.75;;;3.30;;
14104;SDS011;7130;52.484;4.766;2022-07-23T12:40:28;3.80;;;2.65;;
14104;SDS011;7130;52.484;4.766;2022-07-23T12:42:56;4.80;;;3.63;;
14104;SDS011;7130;52.484;4.766;2022-07-23T12:45:23;3.60;;;2.70;;
14104;SDS011;7130;52.484;4.766;2022-07-23T12:47:53;4.90;;;2.88;;
14104;SDS011;7130;52.484;4.766;2022-07-23T12:50:33;4.07;;;2.20;;
14104;SDS011;7130;52.484;4.766;2022-07-23T12:53:02;4.65;;;3.40;;
14104;SDS011;7130;52.484;4.766;2022-07-23T12:55:29;3.40;;;2.53;;
14104;SDS011;7130;52.484;4.766;2022-07-23T12:58:02;4.30;;;2.78;;
14104;SDS011;7130;52.484;4.766;2022-07-23T13:00:30;3.85;;;3.20;;
14104;SDS011;7130;52.484;4.766;2022-07-23T13:02:59;4.10;;;3.20;;
14104;SDS011;7130;52.484;4.766;2022-07-23T13:05:26;4.88;;;2.97;;
14104;SDS011;7130;52.484;4.766;2022-07-23T13:07:53;3.70;;;2.63;;
14104;SDS011;7130;52.484;4.766;2022-07-23T13:10:20;3.38;;;2.78;;
14104;SDS011;7130;52.484;4.766;2022-07-23T13:12:47;5.47;;;2.70;;
14104;SDS011;7130;52.484;4.766;2022-07-23T13:15:14;4.10;;;2.80;;
14104;SDS011;7130;52.484;4.766;2022-07-23T13:17:41;5.32;;;2.75;;
14104;SDS011;7130;52.484;4.766;2022-07-23T13:20:11;4.00;;;2.43;;
14104;SDS011;7130;52.484;4.766;2022-07-23T13:22:38;4.43;;;2.50;;
14104;SDS011;7130;52.484;4.766;2022-07-23T13:25:06;3.50;;;2.38;;
14104;SDS011;7130;52.484;4.766;2022-07-23T13:27:33;2.88;;;2.00;;
14104;SDS011;7130;52.484;4.766;2022-07-23T13:30:00;3.80;;;2.40;;
14104;SDS011;7130;52.484;4.766;2022-07-23T13:32:27;3.33;;;2.20;;
14104;SDS011;7130;52.484;4.766;2022-07-23T13:34:54;3.47;;;2.10;;
14104;SDS011;7130;52.484;4.766;2022-07-23T13:37:23;3.28;;;2.17;;
14104;SDS011;7130;52.484;4.766;2022-07-23T13:39:51;2.40;;;1.60;;
14104;SDS011;7130;52.484;4.766;2022-07-23T13:42:18;2.97;;;2.07;;
14104;SDS011;7130;52.484;4.766;2022-07-23T13:44:45;2.40;;;1.92;;
14104;SDS011;7130;52.484;4.766;2022-07-23T13:47:12;2.70;;;1.93;;
14104;SDS011;7130;52.484;4.766;2022-07-23T13:49:39;3.67;;;1.70;;
14104;SDS011;7130;52.484;4.766;2022-07-23T13:52:06;2.90;;;2.10;;
14104;SDS011;7130;52.484;4.766;2022-07-23T13:54:35;3.17;;;1.50;;
14104;SDS011;7130;52.484;4.766;2022-07-23T13:57:02;2.90;;;1.85;;
14104;SDS011;7130;52.484;4.766;2022-07-23T13:59:29;3.03;;;1.88;;
14104;SDS011;7130;52.484;4.766;2022-07-23T14:01:56;3.28;;;2.10;;
14104;SDS011;7130;52.484;4.766;2022-07-23T14:04:23;2.60;;;1.88;;
14104;SDS011;7130;52.484;4.766;2022-07-23T14:06:51;3.13;;;1.90;;
14104;SDS011;7130;52.484;4.766;2022-07-23T14:09:18;3.05;;;2.00;;
14104;SDS011;7130;52.484;4.766;2022-07-23T14:11:46;2.50;;;1.90;;
14104;SDS011;7130;52.484;4.766;2022-07-23T14:14:14;1.75;;;1.52;;
14104;SDS011;7130;52.484;4.766;2022-07-23T14:16:42;2.08;;;1.70;;
14104;SDS011;7130;52.484;4.766;2022-07-23T14:19:09;2.33;;;1.70;;
14104;SDS011;7130;52.484;4.766;2022-07-23T14:21:36;2.70;;;1.55;;
14104;SDS011;7130;52.484;4.766;2022-07-23T14:24:03;3.22;;;1.80;;
14104;SDS011;7130;52.484;4.766;2022-07-23T14:26:33;2.42;;;1.70;;
14104;SDS011;7130;52.484;4.766;2022-07-23T14:29:02;2.92;;;1.88;;
14104;SDS011;7130;52.484;4.766;2022-07-23T14:31:29;2.45;;;1.75;;
14104;SDS011;7130;52.484;4.766;2022-07-23T14:33:58;2.80;;;1.70;;
14104;SDS011;7130;52.484;4.766;2022-07-23T14:36:29;3.33;;;1.60;;
14104;SDS011;7130;52.484;4.766;2022-07-23T14:38:56;3.40;;;1.80;;
14104;SDS011;7130;52.484;4.766;2022-07-23T14:41:26;3.20;;;1.77;;
14104;SDS011;7130;52.484;4.766;2022-07-23T14:43:54;2.00;;;1.80;;
14104;SDS011;7130;52.484;4.766;2022-07-23T14:46:22;3.95;;;2.03;;
14104;SDS011;7130;52.484;4.766;2022-07-23T14:48:49;3.40;;;2.20;;
14104;SDS011;7130;52.484;4.766;2022-07-23T14:51:17;2.85;;;2.30;;
14104;SDS011;7130;52.484;4.766;2022-07-23T14:53:44;3.83;;;2.20;;
14104;SDS011;7130;52.484;4.766;2022-07-23T14:56:11;4.13;;;2.78;;
14104;SDS011;7130;52.484;4.766;2022-07-23T14:58:39;3.10;;;2.80;;
14104;SDS011;7130;52.484;4.766;2022-07-23T15:01:07;3.63;;;2.40;;
14104;SDS011;7130;52.484;4.766;2022-07-23T15:03:35;3.90;;;2.30;;
14104;SDS011;7130;52.484;4.766;2022-07-23T15:06:03;3.30;;;2.10;;
14104;SDS011;7130;52.484;4.766;2022-07-23T15:08:30;3.42;;;2.30;;
14104;SDS011;7130;52.484;4.766;2022-07-23T15:10:57;2.80;;;2.00;;
14104;SDS011;7130;52.484;4.766;2022-07-23T15:13:24;3.10;;;2.27;;
14104;SDS011;7130;52.484;4.766;2022-07-23T15:15:51;3.63;;;2.87;;
14104;SDS011;7130;52.484;4.766;2022-07-23T15:18:18;2.88;;;2.13;;
14104;SDS011;7130;52.484;4.766;2022-07-23T15:20:47;2.70;;;2.20;;
14104;SDS011;7130;52.484;4.766;2022-07-23T15:23:17;2.83;;;2.47;;
14104;SDS011;7130;52.484;4.766;2022-07-23T15:25:44;3.78;;;2.50;;
14104;SDS011;7130;52.484;4.766;2022-07-23T15:28:11;3.45;;;2.47;;
14104;SDS011;7130;52.484;4.766;2022-07-23T15:30:38;4.32;;;2.47;;
14104;SDS011;7130;52.484;4.766;2022-07-23T15:33:06;6.35;;;3.03;;
14104;SDS011;7130;52.484;4.766;2022-07-23T15:35:33;4.30;;;2.80;;
14104;SDS011;7130;52.484;4.766;2022-07-23T15:38:04;4.03;;;2.60;;
14104;SDS011;7130;52.484;4.766;2022-07-23T15:48:58;3.38;;;2.50;;
14104;SDS011;7130;52.484;4.766;2022-07-23T15:51:26;3.95;;;2.67;;
14104;SDS011;7130;52.484;4.766;2022-07-23T15:53:57;4.30;;;3.33;;
14104;SDS011;7130;52.484;4.766;2022-07-23T15:56:24;4.25;;;2.47;;
14104;SDS011;7130;52.484;4.766;2022-07-23T15:58:51;3.75;;;2.67;;
14104;SDS011;7130;52.484;4.766;2022-07-23T16:01:19;6.20;;;5.15;;
14104;SDS011;7130;52.484;4.766;2022-07-23T16:03:46;4.30;;;2.90;;
14104;SDS011;7130;52.484;4.766;2022-07-23T16:06:13;4.90;;;3.05;;
14104;SDS011;7130;52.484;4.766;2022-07-23T16:08:40;5.57;;;3.80;;
14104;SDS011;7130;52.484;4.766;2022-07-23T16:11:09;4.47;;;3.67;;
14104;SDS011;7130;52.484;4.766;2022-07-23T16:13:36;4.35;;;2.97;;
14104;SDS011;7130;52.484;4.766;2022-07-23T16:16:03;9.70;;;8.25;;
14104;SDS011;7130;52.484;4.766;2022-07-23T16:18:31;6.80;;;4.45;;
14104;SDS011;7130;52.484;4.766;2022-07-23T16:20:58;4.22;;;3.10;;
14104;SDS011;7130;52.484;4.766;2022-07-23T16:23:25;6.40;;;4.75;;
14104;SDS011;7130;52.484;4.766;2022-07-23T16:25:53;3.70;;;3.25;;
14104;SDS011;7130;52.484;4.766;2022-07-23T16:28:21;4.73;;;3.20;;
14104;SDS011;7130;52.484;4.766;2022-07-23T16:30:48;23.63;;;21.15;;
14104;SDS011;7130;52.484;4.766;2022-07-23T16:33:15;6.00;;;4.90;;
14104;SDS011;7130;52.484;4.766;2022-07-23T16:35:42;5.45;;;3.63;;
14104;SDS011;7130;52.484;4.766;2022-07-23T16:38:10;4.18;;;3.33;;
14104;SDS011;7130;52.484;4.766;2022-07-23T16:40:37;3.65;;;2.60;;
14104;SDS011;7130;52.484;4.766;2022-07-23T16:43:04;2.90;;;2.20;;
14104;SDS011;7130;52.484;4.766;2022-07-23T16:45:32;4.75;;;3.08;;
14104;SDS011;7130;52.484;4.766;2022-07-23T16:47:59;6.03;;;5.43;;
14104;SDS011;7130;52.484;4.766;2022-07-23T16:50:27;2.85;;;2.25;;
14104;SDS011;7130;52.484;4.766;2022-07-23T16:52:54;3.95;;;2.88;;